Terminal Aerodrome Forecast
Issued by NWS Milwaukee/Sullivan, WI

Home | Current Version | Previous Version | Text Only | Print | Product List | Glossary On
Versions: 1 2 3 4 5 6 7 8 9 10 11 12 13 14 15 16 17 18 19 20 21 22 23 24 25 26 27 28
000
FTUS43 KMKX 260520
TAFMSN
TAF
KMSN 260520Z 2606/2706 18008KT P6SM BKN250
     FM261600 21008KT P6SM FEW040 BKN080
     FM261800 22008KT P6SM VCTS SCT040CB BKN120
     FM262300 23006KT 6SM -TSRA OVC040CB
     FM270200 17005KT 6SM -TSRA OVC040CB=

USA.gov is the U.S. government's official web portal to all federal, state and local government web resources and services.